CYZE

Gore Bay Manitoulin Airport

Gore Bay, Ontario, Canada
TAF CYZE 141339Z 1414/1423 22008KT 11/2SM BR SCT005 OVC050 TEMPO 1414/1416 3SM BR FM141600 22010KT 3SM BR OVC015 TEMPO 1416/1421 P6SM NSW SCT015 PROB30 1416/1418 21/2SM BR FM142100 24012KT P6SM SCT012 RMK FCST BASED ON AUTO OBS. NXT FCST BY 142000Z
Issued Valid From Valid To
Dec-14 @ 13:39 UTC
(4 hours ago)
Dec-14 @ 14:00 UTC
(4 hours ago)
Dec-14 @ 23:00 UTC
(in 5 hours)
Expired Click to View Dec-14 @ 14:00 to Dec-14 @ 16:00
TAF CYZE 141339Z 1414/1423 22008KT 11/2SM BR SCT005 OVC050
Wind Visibility Clouds Conditions
220° at 8 knots 1 1/2 miles
  • Scattered at 500' AGL
  • Overcast at 5,000' AGL
  • Mist
Expired Click to View Dec-14 @ 14:00 to Dec-14 @ 16:00
TEMPO 1414/1416 3SM BR
Visibility Conditions
3 miles
  • Mist
Expired Click to View Dec-14 @ 16:00 to Dec-14 @ 18:00
PROB30 1416/1418 21/2SM BR
Visibility Conditions
2 1/2 miles
  • Mist
Temporary Dec-14 @ 16:00 to Dec-14 @ 21:00
TEMPO 1416/1421 P6SM NSW SCT015
Visibility Clouds Conditions
Greater than 6 miles
  • Scattered at 1,500' AGL
From Dec-14 @ 16:00 to Dec-14 @ 21:00
FM141600 22010KT 3SM BR OVC015
Wind Visibility Clouds Conditions
220° at 10 knots 3 miles
  • Overcast at 1,500' AGL
  • Mist
From Dec-14 @ 21:00 to Dec-14 @ 23:00
FM142100 24012KT P6SM SCT012 RMK FCST BASED ON AUTO OBS. NXT FCST BY 142000Z
Wind Visibility Clouds
240° at 12 knots Greater than 6 miles
  • Scattered at 1,200' AGL
TAF CYZE 141339Z 1414/1423 22008KT 11/2SM BR SCT005 OVC050 TEMPO 1414/1416 3SM BR FM141600 22010KT 3SM BR OVC015 TEMPO 1416/1421 P6SM NSW SCT015 PROB30 1416/1418 21/2SM BR FM142100 24012KT P6SM SCT012 RMK FCST BASED ON AUTO OBS. NXT FCST BY 142000Z
Issued Dec-14 @ 13:39 UTC
(4 hours ago)
Valid From Dec-14 @ 14:00 UTC
(4 hours ago)
Valid To Dec-14 @ 23:00 UTC
(in 5 hours)
Dec-14 @ 14:00 - Dec-14 @ 16:00
Wind Visibility
220° at 8 knots 1 1/2 miles
Clouds
  • Scattered at 500' AGL
  • Overcast at 5,000' AGL
Conditions
  • Mist
Dec-14 @ 14:00 - Dec-14 @ 16:00
Conditions
  • Mist
Dec-14 @ 16:00 - Dec-14 @ 18:00
Conditions
  • Mist
Temporary Dec-14 @ 16:00 - Dec-14 @ 21:00
Clouds
  • Scattered at 1,500' AGL
Conditions
From Dec-14 @ 16:00 - Dec-14 @ 21:00
Wind Visibility
220° at 10 knots 3 miles
Clouds
  • Overcast at 1,500' AGL
Conditions
  • Mist
From Dec-14 @ 21:00 - Dec-14 @ 23:00
Wind Visibility
240° at 12 knots Greater than 6 miles
Clouds
  • Scattered at 1,200' AGL